sensor_id;sensor_type;location;lat;lon;timestamp;pressure;altitude;pressure_sealevel;temperature;humidity
7335;BME280;3708;42.632;23.378;2023-04-03T00:00:37;93699.25;;;11.97;45.11
7335;BME280;3708;42.632;23.378;2023-04-03T00:03:04;93707.41;;;11.92;45.15
7335;BME280;3708;42.632;23.378;2023-04-03T00:05:31;93695.47;;;11.94;45.15
7335;BME280;3708;42.632;23.378;2023-04-03T00:07:57;93699.19;;;11.93;45.26
7335;BME280;3708;42.632;23.378;2023-04-03T00:10:26;93690.88;;;11.91;45.32
7335;BME280;3708;42.632;23.378;2023-04-03T00:12:53;93689.75;;;12.08;44.86
7335;BME280;3708;42.632;23.378;2023-04-03T00:15:20;93688.09;;;12.00;45.22
7335;BME280;3708;42.632;23.378;2023-04-03T00:17:47;93683.25;;;12.17;44.69
7335;BME280;3708;42.632;23.378;2023-04-03T00:20:13;93678.06;;;12.21;44.78
7335;BME280;3708;42.632;23.378;2023-04-03T00:22:40;93672.81;;;12.21;44.91
7335;BME280;3708;42.632;23.378;2023-04-03T00:25:08;93679.50;;;12.18;44.82
7335;BME280;3708;42.632;23.378;2023-04-03T00:27:37;93682.91;;;12.19;44.72
7335;BME280;3708;42.632;23.378;2023-04-03T00:30:06;93678.66;;;12.14;45.03
7335;BME280;3708;42.632;23.378;2023-04-03T00:32:34;93678.78;;;12.02;45.10
7335;BME280;3708;42.632;23.378;2023-04-03T00:35:00;93682.00;;;11.96;45.30
7335;BME280;3708;42.632;23.378;2023-04-03T00:37:27;93686.31;;;11.88;45.60
7335;BME280;3708;42.632;23.378;2023-04-03T00:39:54;93682.53;;;11.86;45.52
7335;BME280;3708;42.632;23.378;2023-04-03T00:42:21;93684.13;;;11.75;45.78
7335;BME280;3708;42.632;23.378;2023-04-03T00:45:28;93685.31;;;11.77;46.04
7335;BME280;3708;42.632;23.378;2023-04-03T00:47:56;93680.97;;;11.85;46.05
7335;BME280;3708;42.632;23.378;2023-04-03T00:50:25;93683.84;;;11.80;46.30
7335;BME280;3708;42.632;23.378;2023-04-03T00:52:52;93681.31;;;11.68;46.67
7335;BME280;3708;42.632;23.378;2023-04-03T00:55:20;93683.19;;;11.83;46.54
7335;BME280;3708;42.632;23.378;2023-04-03T00:57:47;93684.03;;;11.87;46.53
7335;BME280;3708;42.632;23.378;2023-04-03T01:00:18;93683.44;;;11.78;46.95
7335;BME280;3708;42.632;23.378;2023-04-03T01:02:46;93680.47;;;11.95;46.49
7335;BME280;3708;42.632;23.378;2023-04-03T01:05:15;93680.03;;;12.08;46.54
7335;BME280;3708;42.632;23.378;2023-04-03T01:07:43;93686.97;;;12.16;46.30
7335;BME280;3708;42.632;23.378;2023-04-03T01:10:14;93687.56;;;12.10;46.54
7335;BME280;3708;42.632;23.378;2023-04-03T01:12:45;93678.75;;;12.18;46.04
7335;BME280;3708;42.632;23.378;2023-04-03T01:15:13;93680.69;;;12.21;46.07
7335;BME280;3708;42.632;23.378;2023-04-03T01:17:42;93682.91;;;12.03;46.40
7335;BME280;3708;42.632;23.378;2023-04-03T01:20:35;93682.59;;;11.30;48.42
7335;BME280;3708;42.632;23.378;2023-04-03T01:23:14;93676.28;;;11.04;49.00
7335;BME280;3708;42.632;23.378;2023-04-03T01:25:45;93681.44;;;11.43;48.12
7335;BME280;3708;42.632;23.378;2023-04-03T01:28:15;93682.47;;;11.55;47.71
7335;BME280;3708;42.632;23.378;2023-04-03T01:30:46;93691.16;;;11.71;47.77
7335;BME280;3708;42.632;23.378;2023-04-03T01:33:16;93679.47;;;11.84;47.43
7335;BME280;3708;42.632;23.378;2023-04-03T01:35:43;93689.19;;;11.68;47.08
7335;BME280;3708;42.632;23.378;2023-04-03T01:38:10;93692.34;;;11.45;47.27
7335;BME280;3708;42.632;23.378;2023-04-03T01:40:37;93685.56;;;11.29;47.78
7335;BME280;3708;42.632;23.378;2023-04-03T01:43:04;93689.81;;;11.33;48.10
7335;BME280;3708;42.632;23.378;2023-04-03T01:45:31;93687.41;;;11.28;48.15
7335;BME280;3708;42.632;23.378;2023-04-03T01:47:58;93684.78;;;11.28;48.36
7335;BME280;3708;42.632;23.378;2023-04-03T01:50:26;93688.16;;;11.13;48.22
7335;BME280;3708;42.632;23.378;2023-04-03T01:52:53;93691.69;;;11.05;48.62
7335;BME280;3708;42.632;23.378;2023-04-03T01:55:20;93697.63;;;11.18;48.39
7335;BME280;3708;42.632;23.378;2023-04-03T01:57:46;93694.63;;;11.31;48.32
7335;BME280;3708;42.632;23.378;2023-04-03T02:00:14;93699.28;;;11.38;48.24
7335;BME280;3708;42.632;23.378;2023-04-03T02:02:41;93694.31;;;11.48;47.87
7335;BME280;3708;42.632;23.378;2023-04-03T02:05:09;93688.47;;;11.55;48.04
7335;BME280;3708;42.632;23.378;2023-04-03T02:07:37;93689.91;;;11.52;47.55
7335;BME280;3708;42.632;23.378;2023-04-03T02:10:04;93685.66;;;11.32;47.65
7335;BME280;3708;42.632;23.378;2023-04-03T02:12:31;93683.28;;;11.27;47.65
7335;BME280;3708;42.632;23.378;2023-04-03T02:14:58;93692.34;;;11.30;47.60
7335;BME280;3708;42.632;23.378;2023-04-03T02:17:26;93696.97;;;11.36;47.65
7335;BME280;3708;42.632;23.378;2023-04-03T02:19:52;93692.81;;;11.20;47.64
7335;BME280;3708;42.632;23.378;2023-04-03T02:22:19;93691.38;;;11.22;47.59
7335;BME280;3708;42.632;23.378;2023-04-03T02:24:48;93691.22;;;11.31;47.45
7335;BME280;3708;42.632;23.378;2023-04-03T02:27:15;93689.56;;;11.38;47.45
7335;BME280;3708;42.632;23.378;2023-04-03T02:29:41;93688.25;;;11.32;47.61
7335;BME280;3708;42.632;23.378;2023-04-03T02:32:08;93683.97;;;11.40;47.25
7335;BME280;3708;42.632;23.378;2023-04-03T02:34:35;93682.72;;;11.34;47.45
7335;BME280;3708;42.632;23.378;2023-04-03T02:37:02;93681.16;;;11.33;47.32
7335;BME280;3708;42.632;23.378;2023-04-03T02:39:29;93674.13;;;11.21;47.24
7335;BME280;3708;42.632;23.378;2023-04-03T02:41:57;93682.59;;;11.15;47.56
7335;BME280;3708;42.632;23.378;2023-04-03T02:44:24;93676.09;;;11.24;47.33
7335;BME280;3708;42.632;23.378;2023-04-03T02:46:51;93675.56;;;10.91;47.72
7335;BME280;3708;42.632;23.378;2023-04-03T02:49:18;93673.97;;;10.87;47.65
7335;BME280;3708;42.632;23.378;2023-04-03T02:51:44;93665.19;;;10.67;47.73
7335;BME280;3708;42.632;23.378;2023-04-03T02:54:11;93673.28;;;10.62;48.17
7335;BME280;3708;42.632;23.378;2023-04-03T02:56:38;93664.78;;;10.53;48.52
7335;BME280;3708;42.632;23.378;2023-04-03T02:59:06;93662.63;;;10.43;48.61
7335;BME280;3708;42.632;23.378;2023-04-03T03:01:34;93662.66;;;10.31;48.73
7335;BME280;3708;42.632;23.378;2023-04-03T03:04:01;93660.28;;;10.26;48.89
7335;BME280;3708;42.632;23.378;2023-04-03T03:06:28;93659.41;;;9.97;49.69
7335;BME280;3708;42.632;23.378;2023-04-03T03:08:54;93654.25;;;10.01;50.15
7335;BME280;3708;42.632;23.378;2023-04-03T03:11:21;93651.78;;;10.17;50.10
7335;BME280;3708;42.632;23.378;2023-04-03T03:13:48;93642.50;;;10.19;50.16
7335;BME280;3708;42.632;23.378;2023-04-03T03:16:16;93648.13;;;10.33;50.00
7335;BME280;3708;42.632;23.378;2023-04-03T03:18:43;93650.19;;;10.52;49.53
7335;BME280;3708;42.632;23.378;2023-04-03T03:21:10;93650.34;;;10.71;48.85
7335;BME280;3708;42.632;23.378;2023-04-03T03:23:37;93652.22;;;10.58;49.12
7335;BME280;3708;42.632;23.378;2023-04-03T03:26:06;93650.19;;;10.40;49.33
7335;BME280;3708;42.632;23.378;2023-04-03T03:28:34;93653.50;;;10.25;49.58
7335;BME280;3708;42.632;23.378;2023-04-03T03:31:01;93652.41;;;10.26;49.67
7335;BME280;3708;42.632;23.378;2023-04-03T03:33:30;93646.75;;;10.24;49.62
7335;BME280;3708;42.632;23.378;2023-04-03T03:35:57;93648.25;;;10.25;49.68
7335;BME280;3708;42.632;23.378;2023-04-03T03:38:24;93657.34;;;10.15;49.79
7335;BME280;3708;42.632;23.378;2023-04-03T03:40:51;93660.28;;;10.26;49.54
7335;BME280;3708;42.632;23.378;2023-04-03T03:43:18;93647.84;;;10.11;49.86
7335;BME280;3708;42.632;23.378;2023-04-03T03:45:49;93648.94;;;10.22;49.79
7335;BME280;3708;42.632;23.378;2023-04-03T03:48:16;93648.16;;;10.21;49.45
7335;BME280;3708;42.632;23.378;2023-04-03T03:50:45;93653.19;;;10.26;49.27
7335;BME280;3708;42.632;23.378;2023-04-03T03:53:12;93651.09;;;10.08;49.10
7335;BME280;3708;42.632;23.378;2023-04-03T03:55:39;93655.47;;;9.91;49.63
7335;BME280;3708;42.632;23.378;2023-04-03T03:58:06;93661.56;;;9.71;50.24
7335;BME280;3708;42.632;23.378;2023-04-03T04:00:33;93663.66;;;9.78;50.05
7335;BME280;3708;42.632;23.378;2023-04-03T04:02:59;93658.53;;;9.69;50.24
7335;BME280;3708;42.632;23.378;2023-04-03T04:05:26;93658.53;;;9.69;50.41
7335;BME280;3708;42.632;23.378;2023-04-03T04:07:55;93644.91;;;9.76;50.16
7335;BME280;3708;42.632;23.378;2023-04-03T04:10:21;93651.00;;;9.68;50.04
7335;BME280;3708;42.632;23.378;2023-04-03T04:12:48;93661.03;;;9.66;50.17
7335;BME280;3708;42.632;23.378;2023-04-03T04:15:16;93667.00;;;9.66;50.53
7335;BME280;3708;42.632;23.378;2023-04-03T04:17:44;93665.69;;;9.60;50.54
7335;BME280;3708;42.632;23.378;2023-04-03T04:20:11;93663.75;;;9.69;50.30
7335;BME280;3708;42.632;23.378;2023-04-03T04:22:38;93663.09;;;9.72;50.44
7335;BME280;3708;42.632;23.378;2023-04-03T04:25:10;93666.25;;;9.78;50.49
7335;BME280;3708;42.632;23.378;2023-04-03T04:27:37;93675.09;;;9.85;50.46
7335;BME280;3708;42.632;23.378;2023-04-03T04:30:05;93670.63;;;9.98;50.54
7335;BME280;3708;42.632;23.378;2023-04-03T04:32:36;93668.53;;;10.04;50.18
7335;BME280;3708;42.632;23.378;2023-04-03T04:35:04;93666.81;;;9.95;50.39
7335;BME280;3708;42.632;23.378;2023-04-03T04:37:31;93675.41;;;10.08;50.37
7335;BME280;3708;42.632;23.378;2023-04-03T04:39:58;93674.69;;;10.20;50.41
7335;BME280;3708;42.632;23.378;2023-04-03T04:42:28;93671.72;;;9.97;50.20
7335;BME280;3708;42.632;23.378;2023-04-03T04:44:56;93676.63;;;10.11;50.84
7335;BME280;3708;42.632;23.378;2023-04-03T04:47:23;93677.03;;;10.25;50.31
7335;BME280;3708;42.632;23.378;2023-04-03T04:49:49;93678.56;;;10.38;50.53
7335;BME280;3708;42.632;23.378;2023-04-03T04:52:16;93681.13;;;10.62;50.30
7335;BME280;3708;42.632;23.378;2023-04-03T04:54:43;93678.88;;;10.76;50.12
7335;BME280;3708;42.632;23.378;2023-04-03T04:57:10;93689.00;;;10.90;49.76
7335;BME280;3708;42.632;23.378;2023-04-03T04:59:38;93689.19;;;10.97;49.55
7335;BME280;3708;42.632;23.378;2023-04-03T05:02:05;93700.16;;;10.87;49.12
7335;BME280;3708;42.632;23.378;2023-04-03T05:04:32;93709.88;;;10.86;49.52
7335;BME280;3708;42.632;23.378;2023-04-03T05:06:59;93715.47;;;10.85;49.36
7335;BME280;3708;42.632;23.378;2023-04-03T05:09:26;93714.81;;;10.76;49.60
7335;BME280;3708;42.632;23.378;2023-04-03T05:11:53;93722.69;;;10.76;49.57
7335;BME280;3708;42.632;23.378;2023-04-03T05:14:21;93714.88;;;10.91;49.51
7335;BME280;3708;42.632;23.378;2023-04-03T05:16:49;93713.97;;;10.99;48.88
7335;BME280;3708;42.632;23.378;2023-04-03T05:19:18;93721.44;;;10.85;49.01
7335;BME280;3708;42.632;23.378;2023-04-03T05:21:46;93713.88;;;10.96;48.97
7335;BME280;3708;42.632;23.378;2023-04-03T05:24:13;93714.84;;;11.03;48.95
7335;BME280;3708;42.632;23.378;2023-04-03T05:26:41;93711.66;;;11.10;48.75
7335;BME280;3708;42.632;23.378;2023-04-03T05:29:08;93711.88;;;11.05;48.80
7335;BME280;3708;42.632;23.378;2023-04-03T05:31:35;93722.13;;;10.70;49.50
7335;BME280;3708;42.632;23.378;2023-04-03T05:34:03;93726.44;;;10.38;50.70
7335;BME280;3708;42.632;23.378;2023-04-03T05:36:31;93710.75;;;10.26;51.28
7335;BME280;3708;42.632;23.378;2023-04-03T05:38:59;93707.72;;;10.24;51.83
7335;BME280;3708;42.632;23.378;2023-04-03T05:41:25;93704.53;;;10.31;52.87
7335;BME280;3708;42.632;23.378;2023-04-03T05:43:52;93711.81;;;10.49;51.46
7335;BME280;3708;42.632;23.378;2023-04-03T05:46:20;93698.16;;;10.96;50.94
7335;BME280;3708;42.632;23.378;2023-04-03T05:48:47;93708.09;;;11.45;49.89
7335;BME280;3708;42.632;23.378;2023-04-03T05:51:17;93704.84;;;11.80;49.12
7335;BME280;3708;42.632;23.378;2023-04-03T05:53:45;93700.97;;;12.05;48.23
7335;BME280;3708;42.632;23.378;2023-04-03T05:56:13;93700.78;;;12.13;48.51
7335;BME280;3708;42.632;23.378;2023-04-03T05:58:40;93688.78;;;12.32;48.37
7335;BME280;3708;42.632;23.378;2023-04-03T06:01:07;93693.31;;;12.31;47.73
7335;BME280;3708;42.632;23.378;2023-04-03T06:03:34;93699.59;;;12.11;47.90
7335;BME280;3708;42.632;23.378;2023-04-03T06:06:03;93687.97;;;12.27;47.89
7335;BME280;3708;42.632;23.378;2023-04-03T06:08:33;93686.31;;;12.54;47.94
7335;BME280;3708;42.632;23.378;2023-04-03T06:11:01;93677.28;;;12.55;47.68
7335;BME280;3708;42.632;23.378;2023-04-03T06:13:28;93692.09;;;12.44;47.66
7335;BME280;3708;42.632;23.378;2023-04-03T06:15:55;93687.13;;;12.58;47.54
7335;BME280;3708;42.632;23.378;2023-04-03T06:18:23;93686.44;;;12.61;47.15
7335;BME280;3708;42.632;23.378;2023-04-03T06:20:50;93678.28;;;12.66;47.44
7335;BME280;3708;42.632;23.378;2023-04-03T06:23:17;93681.31;;;12.68;47.58
7335;BME280;3708;42.632;23.378;2023-04-03T06:25:45;93686.13;;;12.47;47.69
7335;BME280;3708;42.632;23.378;2023-04-03T06:28:12;93691.28;;;12.59;47.68
7335;BME280;3708;42.632;23.378;2023-04-03T06:30:39;93697.59;;;12.74;47.35
7335;BME280;3708;42.632;23.378;2023-04-03T06:33:06;93693.91;;;12.59;47.13
7335;BME280;3708;42.632;23.378;2023-04-03T06:35:33;93701.59;;;12.33;47.47
7335;BME280;3708;42.632;23.378;2023-04-03T06:38:00;93716.41;;;12.41;47.39
7335;BME280;3708;42.632;23.378;2023-04-03T06:40:29;93716.06;;;12.43;47.12
7335;BME280;3708;42.632;23.378;2023-04-03T06:42:57;93715.16;;;12.35;47.36
7335;BME280;3708;42.632;23.378;2023-04-03T06:45:24;93705.28;;;12.48;47.14
7335;BME280;3708;42.632;23.378;2023-04-03T06:47:51;93702.34;;;12.34;47.48
7335;BME280;3708;42.632;23.378;2023-04-03T06:50:18;93696.88;;;12.58;47.29
7335;BME280;3708;42.632;23.378;2023-04-03T06:52:45;93705.72;;;12.50;47.50
7335;BME280;3708;42.632;23.378;2023-04-03T06:55:12;93703.81;;;12.66;47.42
7335;BME280;3708;42.632;23.378;2023-04-03T06:57:39;93704.38;;;12.94;46.66
7335;BME280;3708;42.632;23.378;2023-04-03T07:00:08;93713.06;;;13.14;46.35
7335;BME280;3708;42.632;23.378;2023-04-03T07:02:36;93707.50;;;13.38;45.68
7335;BME280;3708;42.632;23.378;2023-04-03T07:05:05;93699.16;;;13.32;45.28
7335;BME280;3708;42.632;23.378;2023-04-03T07:07:32;93704.28;;;13.25;45.89
7335;BME280;3708;42.632;23.378;2023-04-03T07:10:02;93702.94;;;13.54;45.43
7335;BME280;3708;42.632;23.378;2023-04-03T07:12:29;93687.84;;;13.73;44.91
7335;BME280;3708;42.632;23.378;2023-04-03T07:14:56;93696.59;;;13.81;45.12
7335;BME280;3708;42.632;23.378;2023-04-03T07:17:24;93692.03;;;13.78;44.64
7335;BME280;3708;42.632;23.378;2023-04-03T07:19:52;93689.16;;;13.87;44.79
7335;BME280;3708;42.632;23.378;2023-04-03T07:22:19;93682.47;;;13.66;45.59
7335;BME280;3708;42.632;23.378;2023-04-03T07:24:46;93682.22;;;13.75;45.00
7335;BME280;3708;42.632;23.378;2023-04-03T07:27:13;93680.94;;;13.65;45.72
7335;BME280;3708;42.632;23.378;2023-04-03T07:29:39;93682.81;;;13.65;45.77
7335;BME280;3708;42.632;23.378;2023-04-03T07:32:06;93683.84;;;13.19;46.69
7335;BME280;3708;42.632;23.378;2023-04-03T07:34:35;93680.81;;;12.78;48.22
7335;BME280;3708;42.632;23.378;2023-04-03T07:37:02;93676.94;;;13.11;47.53
7335;BME280;3708;42.632;23.378;2023-04-03T07:39:30;93676.66;;;13.35;47.16
7335;BME280;3708;42.632;23.378;2023-04-03T07:41:57;93666.50;;;13.56;46.82
7335;BME280;3708;42.632;23.378;2023-04-03T07:44:23;93674.50;;;13.63;46.29
7335;BME280;3708;42.632;23.378;2023-04-03T07:46:50;93672.66;;;13.22;47.25
7335;BME280;3708;42.632;23.378;2023-04-03T07:49:17;93667.81;;;13.46;46.81
7335;BME280;3708;42.632;23.378;2023-04-03T07:51:46;93671.28;;;13.73;46.21
7335;BME280;3708;42.632;23.378;2023-04-03T07:54:15;93673.84;;;13.92;45.58
7335;BME280;3708;42.632;23.378;2023-04-03T07:56:42;93667.13;;;13.95;45.64
7335;BME280;3708;42.632;23.378;2023-04-03T07:59:09;93664.78;;;14.38;45.18
7335;BME280;3708;42.632;23.378;2023-04-03T08:01:36;93663.56;;;14.32;45.12
7335;BME280;3708;42.632;23.378;2023-04-03T08:04:03;93662.13;;;14.65;44.74
7335;BME280;3708;42.632;23.378;2023-04-03T08:06:31;93667.09;;;14.70;44.71
7335;BME280;3708;42.632;23.378;2023-04-03T08:09:02;93663.66;;;14.66;44.68
7335;BME280;3708;42.632;23.378;2023-04-03T08:11:29;93665.03;;;14.86;43.90
7335;BME280;3708;42.632;23.378;2023-04-03T08:13:56;93662.91;;;14.69;43.94
7335;BME280;3708;42.632;23.378;2023-04-03T08:16:24;93650.69;;;14.27;44.91
7335;BME280;3708;42.632;23.378;2023-04-03T08:18:52;93661.59;;;14.52;44.53
7335;BME280;3708;42.632;23.378;2023-04-03T08:21:19;93668.53;;;14.64;44.82
7335;BME280;3708;42.632;23.378;2023-04-03T08:23:48;93658.81;;;14.71;45.06
7335;BME280;3708;42.632;23.378;2023-04-03T08:26:18;93647.69;;;14.85;44.92
7335;BME280;3708;42.632;23.378;2023-04-03T08:28:46;93645.41;;;15.16;43.91
7335;BME280;3708;42.632;23.378;2023-04-03T08:31:14;93650.19;;;14.74;45.11
7335;BME280;3708;42.632;23.378;2023-04-03T08:33:42;93650.09;;;14.97;45.17
7335;BME280;3708;42.632;23.378;2023-04-03T08:36:17;93643.69;;;15.31;44.48
7335;BME280;3708;42.632;23.378;2023-04-03T08:38:45;93637.84;;;15.48;44.39
7335;BME280;3708;42.632;23.378;2023-04-03T08:41:18;93640.59;;;15.62;44.05
7335;BME280;3708;42.632;23.378;2023-04-03T08:44:02;93637.34;;;15.76;43.72
7335;BME280;3708;42.632;23.378;2023-04-03T08:46:39;93634.69;;;15.76;43.57
7335;BME280;3708;42.632;23.378;2023-04-03T08:49:12;93627.41;;;16.10;43.20
7335;BME280;3708;42.632;23.378;2023-04-03T08:51:42;93626.81;;;16.34;42.33
7335;BME280;3708;42.632;23.378;2023-04-03T08:54:21;93623.84;;;16.46;41.41
7335;BME280;3708;42.632;23.378;2023-04-03T08:56:53;93616.69;;;16.46;41.54
7335;BME280;3708;42.632;23.378;2023-04-03T08:59:26;93618.56;;;16.42;41.52
7335;BME280;3708;42.632;23.378;2023-04-03T09:01:54;93612.44;;;16.35;42.05
7335;BME280;3708;42.632;23.378;2023-04-03T09:04:22;93617.16;;;16.59;41.37
7335;BME280;3708;42.632;23.378;2023-04-03T09:06:53;93615.53;;;16.44;41.83
7335;BME280;3708;42.632;23.378;2023-04-03T09:09:31;93609.09;;;16.38;41.87
7335;BME280;3708;42.632;23.378;2023-04-03T09:12:10;93602.53;;;16.18;42.40
7335;BME280;3708;42.632;23.378;2023-04-03T09:14:42;93601.19;;;16.48;41.89
7335;BME280;3708;42.632;23.378;2023-04-03T09:17:16;93596.00;;;16.59;41.78
7335;BME280;3708;42.632;23.378;2023-04-03T09:19:54;93591.59;;;16.91;40.90
7335;BME280;3708;42.632;23.378;2023-04-03T09:22:31;93584.84;;;17.11;39.87
7335;BME280;3708;42.632;23.378;2023-04-03T09:25:02;93589.31;;;16.90;40.54
7335;BME280;3708;42.632;23.378;2023-04-03T09:27:32;93581.06;;;17.19;39.75
7335;BME280;3708;42.632;23.378;2023-04-03T09:29:59;93583.38;;;17.38;38.48
7335;BME280;3708;42.632;23.378;2023-04-03T09:32:28;93587.19;;;17.44;38.33
7335;BME280;3708;42.632;23.378;2023-04-03T09:34:57;93584.16;;;17.49;38.79
7335;BME280;3708;42.632;23.378;2023-04-03T09:37:38;93586.44;;;17.69;37.88
7335;BME280;3708;42.632;23.378;2023-04-03T09:40:12;93583.41;;;17.95;36.75
7335;BME280;3708;42.632;23.378;2023-04-03T09:42:58;93578.88;;;17.88;37.13
7335;BME280;3708;42.632;23.378;2023-04-03T09:45:27;93580.03;;;17.91;37.11
7335;BME280;3708;42.632;23.378;2023-04-03T09:48:08;93573.97;;;17.73;37.13
7335;BME280;3708;42.632;23.378;2023-04-03T09:50:54;93574.69;;;17.48;38.01
7335;BME280;3708;42.632;23.378;2023-04-03T09:53:35;93571.72;;;17.68;37.73
7335;BME280;3708;42.632;23.378;2023-04-03T09:56:05;93565.28;;;17.55;36.73
7335;BME280;3708;42.632;23.378;2023-04-03T09:58:37;93569.44;;;17.63;36.19
7335;BME280;3708;42.632;23.378;2023-04-03T10:01:06;93562.19;;;17.38;36.40
7335;BME280;3708;42.632;23.378;2023-04-03T10:04:03;93570.50;;;17.30;37.16
7335;BME280;3708;42.632;23.378;2023-04-03T10:06:32;93570.50;;;17.19;37.83
7335;BME280;3708;42.632;23.378;2023-04-03T10:09:05;93565.22;;;17.23;37.37
7335;BME280;3708;42.632;23.378;2023-04-03T10:11:33;93563.31;;;17.16;38.08
7335;BME280;3708;42.632;23.378;2023-04-03T10:14:02;93570.88;;;17.28;37.63
7335;BME280;3708;42.632;23.378;2023-04-03T10:16:36;93568.22;;;17.21;37.40
7335;BME280;3708;42.632;23.378;2023-04-03T10:19:28;93564.84;;;17.31;37.25
7335;BME280;3708;42.632;23.378;2023-04-03T10:21:59;93553.88;;;17.43;36.81
7335;BME280;3708;42.632;23.378;2023-04-03T10:24:36;93553.13;;;17.39;36.45
7335;BME280;3708;42.632;23.378;2023-04-03T10:27:11;93556.53;;;17.36;36.80
7335;BME280;3708;42.632;23.378;2023-04-03T10:29:47;93551.59;;;17.38;37.00
7335;BME280;3708;42.632;23.378;2023-04-03T10:32:44;93544.41;;;17.28;36.89
7335;BME280;3708;42.632;23.378;2023-04-03T10:35:20;93545.53;;;17.27;37.06
7335;BME280;3708;42.632;23.378;2023-04-03T10:37:59;93543.28;;;17.22;37.02
7335;BME280;3708;42.632;23.378;2023-04-03T10:40:30;93527.41;;;17.29;37.20
7335;BME280;3708;42.632;23.378;2023-04-03T10:43:06;93531.94;;;17.25;37.31
7335;BME280;3708;42.632;23.378;2023-04-03T10:45:51;93525.91;;;17.35;37.47
7335;BME280;3708;42.632;23.378;2023-04-03T10:48:31;93528.13;;;17.12;37.88
7335;BME280;3708;42.632;23.378;2023-04-03T10:51:07;93528.16;;;17.19;37.73
7335;BME280;3708;42.632;23.378;2023-04-03T10:53:39;93525.91;;;17.25;37.54
7335;BME280;3708;42.632;23.378;2023-04-03T10:56:15;93520.59;;;17.07;38.03
7335;BME280;3708;42.632;23.378;2023-04-03T10:58:49;93532.66;;;16.94;39.05
7335;BME280;3708;42.632;23.378;2023-04-03T11:01:23;93539.09;;;16.97;39.67
7335;BME280;3708;42.632;23.378;2023-04-03T11:03:54;93529.25;;;17.04;39.54
7335;BME280;3708;42.632;23.378;2023-04-03T11:06:25;93533.41;;;17.02;39.86
7335;BME280;3708;42.632;23.378;2023-04-03T11:08:57;93539.09;;;17.00;40.29
7335;BME280;3708;42.632;23.378;2023-04-03T11:11:31;93534.88;;;16.78;41.11
7335;BME280;3708;42.632;23.378;2023-04-03T11:14:03;93540.88;;;16.64;41.96
7335;BME280;3708;42.632;23.378;2023-04-03T11:16:34;93535.13;;;16.48;42.95
7335;BME280;3708;42.632;23.378;2023-04-03T11:19:08;93539.56;;;16.27;44.00
7335;BME280;3708;42.632;23.378;2023-04-03T11:21:41;93535.09;;;15.69;46.79
7335;BME280;3708;42.632;23.378;2023-04-03T11:24:17;93530.44;;;15.52;47.61
7335;BME280;3708;42.632;23.378;2023-04-03T11:26:49;93536.88;;;15.55;49.00
7335;BME280;3708;42.632;23.378;2023-04-03T11:29:21;93535.47;;;15.71;48.58
7335;BME280;3708;42.632;23.378;2023-04-03T11:32:05;93533.66;;;15.82;48.58
7335;BME280;3708;42.632;23.378;2023-04-03T11:34:39;93528.81;;;15.95;48.75
7335;BME280;3708;42.632;23.378;2023-04-03T11:37:13;93529.16;;;15.86;49.48
7335;BME280;3708;42.632;23.378;2023-04-03T11:39:50;93527.25;;;15.83;49.53
7335;BME280;3708;42.632;23.378;2023-04-03T11:42:27;93527.50;;;15.68;50.55
7335;BME280;3708;42.632;23.378;2023-04-03T11:45:15;93539.34;;;15.37;51.80
7335;BME280;3708;42.632;23.378;2023-04-03T11:47:46;93534.00;;;15.34;51.57
7335;BME280;3708;42.632;23.378;2023-04-03T11:50:32;93533.91;;;15.19;52.44
7335;BME280;3708;42.632;23.378;2023-04-03T11:56:29;93539.00;;;15.02;53.56
7335;BME280;3708;42.632;23.378;2023-04-03T11:59:22;93543.03;;;14.89;54.21
7335;BME280;3708;42.632;23.378;2023-04-03T12:01:49;93538.72;;;14.74;54.46
7335;BME280;3708;42.632;23.378;2023-04-03T12:04:20;93541.41;;;14.44;55.38
7335;BME280;3708;42.632;23.378;2023-04-03T12:06:53;93552.06;;;14.55;55.15
7335;BME280;3708;42.632;23.378;2023-04-03T12:09:56;93543.69;;;14.45;56.09
7335;BME280;3708;42.632;23.378;2023-04-03T12:12:33;93548.56;;;14.47;56.00
7335;BME280;3708;42.632;23.378;2023-04-03T12:15:24;93541.78;;;14.42;56.61
7335;BME280;3708;42.632;23.378;2023-04-03T12:17:52;93544.13;;;14.51;56.73
7335;BME280;3708;42.632;23.378;2023-04-03T12:20:55;93535.94;;;14.60;57.09
7335;BME280;3708;42.632;23.378;2023-04-03T12:23:28;93535.56;;;14.58;57.05
7335;BME280;3708;42.632;23.378;2023-04-03T12:26:04;93528.72;;;14.53;57.17
7335;BME280;3708;42.632;23.378;2023-04-03T12:28:39;93535.88;;;14.52;57.02
7335;BME280;3708;42.632;23.378;2023-04-03T12:31:08;93529.91;;;14.59;56.85
7335;BME280;3708;42.632;23.378;2023-04-03T12:36:37;93517.91;;;14.62;57.43
7335;BME280;3708;42.632;23.378;2023-04-03T12:39:20;93514.50;;;14.61;57.48
7335;BME280;3708;42.632;23.378;2023-04-03T12:41:56;93506.03;;;14.45;57.97
7335;BME280;3708;42.632;23.378;2023-04-03T12:44:40;93503.06;;;14.46;57.67
7335;BME280;3708;42.632;23.378;2023-04-03T12:47:27;93491.66;;;14.39;58.52
7335;BME280;3708;42.632;23.378;2023-04-03T12:49:59;93487.25;;;14.46;58.14
7335;BME280;3708;42.632;23.378;2023-04-03T12:52:33;93477.59;;;14.28;58.72
7335;BME280;3708;42.632;23.378;2023-04-03T12:55:12;93484.13;;;14.37;58.57
7335;BME280;3708;42.632;23.378;2023-04-03T12:57:40;93486.56;;;14.23;58.13
7335;BME280;3708;42.632;23.378;2023-04-03T13:00:29;93489.72;;;14.06;58.47
7335;BME280;3708;42.632;23.378;2023-04-03T13:02:57;93482.16;;;14.01;58.94
7335;BME280;3708;42.632;23.378;2023-04-03T13:05:24;93488.41;;;14.19;58.58
7335;BME280;3708;42.632;23.378;2023-04-03T13:08:04;93496.63;;;14.14;58.83
7335;BME280;3708;42.632;23.378;2023-04-03T13:10:32;93498.41;;;14.07;59.23
7335;BME280;3708;42.632;23.378;2023-04-03T13:13:09;93487.94;;;14.10;58.78
7335;BME280;3708;42.632;23.378;2023-04-03T13:15:42;93485.31;;;14.14;58.89
7335;BME280;3708;42.632;23.378;2023-04-03T13:18:22;93479.47;;;13.68;60.61
7335;BME280;3708;42.632;23.378;2023-04-03T13:20:49;93491.81;;;13.38;61.63
7335;BME280;3708;42.632;23.378;2023-04-03T13:23:19;93486.13;;;13.58;60.66
7335;BME280;3708;42.632;23.378;2023-04-03T13:25:48;93481.06;;;13.76;60.50
7335;BME280;3708;42.632;23.378;2023-04-03T13:28:21;93481.13;;;13.80;60.52
7335;BME280;3708;42.632;23.378;2023-04-03T13:30:59;93473.19;;;13.76;60.88
7335;BME280;3708;42.632;23.378;2023-04-03T13:33:29;93472.03;;;13.73;60.64
7335;BME280;3708;42.632;23.378;2023-04-03T13:36:01;93478.53;;;13.53;60.64